sensor_id;sensor_type;location;lat;lon;timestamp;P1;durP1;ratioP1;P2;durP2;ratioP2
35887;SDS011;21990;42.540;23.496;2023-09-07T00:00:17;21.65;;;10.43;;
35887;SDS011;21990;42.540;23.496;2023-09-07T00:02:42;16.95;;;9.15;;
35887;SDS011;21990;42.540;23.496;2023-09-07T00:05:08;20.42;;;8.85;;
35887;SDS011;21990;42.540;23.496;2023-09-07T00:07:34;15.38;;;9.32;;
35887;SDS011;21990;42.540;23.496;2023-09-07T00:10:00;15.18;;;9.98;;
35887;SDS011;21990;42.540;23.496;2023-09-07T00:12:26;17.08;;;9.85;;
35887;SDS011;21990;42.540;23.496;2023-09-07T00:14:52;24.77;;;9.98;;
35887;SDS011;21990;42.540;23.496;2023-09-07T00:17:20;20.65;;;10.15;;
35887;SDS011;21990;42.540;23.496;2023-09-07T00:30:10;19.53;;;9.53;;
35887;SDS011;21990;42.540;23.496;2023-09-07T00:32:50;15.43;;;10.35;;
35887;SDS011;21990;42.540;23.496;2023-09-07T00:35:16;22.58;;;10.30;;
35887;SDS011;21990;42.540;23.496;2023-09-07T00:37:42;15.18;;;10.18;;
35887;SDS011;21990;42.540;23.496;2023-09-07T00:40:08;21.90;;;10.23;;
35887;SDS011;21990;42.540;23.496;2023-09-07T00:42:34;14.48;;;9.55;;
35887;SDS011;21990;42.540;23.496;2023-09-07T00:45:00;17.17;;;9.73;;
35887;SDS011;21990;42.540;23.496;2023-09-07T00:47:26;20.92;;;9.95;;
35887;SDS011;21990;42.540;23.496;2023-09-07T00:49:51;14.40;;;9.75;;
35887;SDS011;21990;42.540;23.496;2023-09-07T00:52:18;15.18;;;10.00;;
35887;SDS011;21990;42.540;23.496;2023-09-07T00:54:45;13.90;;;9.50;;
35887;SDS011;21990;42.540;23.496;2023-09-07T00:57:11;19.27;;;10.40;;
35887;SDS011;21990;42.540;23.496;2023-09-07T00:59:36;16.08;;;10.07;;
35887;SDS011;21990;42.540;23.496;2023-09-07T01:02:02;18.50;;;9.70;;
35887;SDS011;21990;42.540;23.496;2023-09-07T01:04:30;27.15;;;10.98;;
35887;SDS011;21990;42.540;23.496;2023-09-07T01:07:00;21.50;;;10.77;;
35887;SDS011;21990;42.540;23.496;2023-09-07T01:09:32;20.90;;;10.13;;
35887;SDS011;21990;42.540;23.496;2023-09-07T01:12:02;18.10;;;10.48;;
35887;SDS011;21990;42.540;23.496;2023-09-07T01:14:28;21.80;;;10.57;;
35887;SDS011;21990;42.540;23.496;2023-09-07T01:16:53;20.20;;;10.93;;
35887;SDS011;21990;42.540;23.496;2023-09-07T01:19:19;18.90;;;10.32;;
35887;SDS011;21990;42.540;23.496;2023-09-07T01:21:44;18.15;;;10.18;;
35887;SDS011;21990;42.540;23.496;2023-09-07T01:24:11;16.55;;;9.77;;
35887;SDS011;21990;42.540;23.496;2023-09-07T01:26:39;19.17;;;10.75;;
35887;SDS011;21990;42.540;23.496;2023-09-07T01:29:05;20.02;;;9.77;;
35887;SDS011;21990;42.540;23.496;2023-09-07T01:31:34;19.48;;;9.80;;
35887;SDS011;21990;42.540;23.496;2023-09-07T01:34:03;22.52;;;10.05;;
35887;SDS011;21990;42.540;23.496;2023-09-07T01:36:30;21.25;;;10.05;;
35887;SDS011;21990;42.540;23.496;2023-09-07T01:38:55;18.65;;;9.77;;
35887;SDS011;21990;42.540;23.496;2023-09-07T01:41:21;20.00;;;10.70;;
35887;SDS011;21990;42.540;23.496;2023-09-07T01:43:47;24.63;;;10.80;;
35887;SDS011;21990;42.540;23.496;2023-09-07T01:46:13;19.20;;;10.35;;
35887;SDS011;21990;42.540;23.496;2023-09-07T01:48:39;13.70;;;10.00;;
35887;SDS011;21990;42.540;23.496;2023-09-07T01:51:04;22.83;;;10.90;;
35887;SDS011;21990;42.540;23.496;2023-09-07T01:53:30;18.35;;;10.70;;
35887;SDS011;21990;42.540;23.496;2023-09-07T01:55:55;17.92;;;10.77;;
35887;SDS011;21990;42.540;23.496;2023-09-07T01:58:21;17.98;;;9.10;;
35887;SDS011;21990;42.540;23.496;2023-09-07T02:00:49;20.15;;;10.55;;
35887;SDS011;21990;42.540;23.496;2023-09-07T02:03:15;16.85;;;10.60;;
35887;SDS011;21990;42.540;23.496;2023-09-07T02:05:40;16.17;;;10.48;;
35887;SDS011;21990;42.540;23.496;2023-09-07T02:08:06;19.55;;;10.90;;
35887;SDS011;21990;42.540;23.496;2023-09-07T02:10:32;19.05;;;11.10;;
35887;SDS011;21990;42.540;23.496;2023-09-07T02:12:58;18.48;;;10.48;;
35887;SDS011;21990;42.540;23.496;2023-09-07T02:15:24;20.75;;;10.27;;
35887;SDS011;21990;42.540;23.496;2023-09-07T02:17:50;23.83;;;10.98;;
35887;SDS011;21990;42.540;23.496;2023-09-07T02:20:15;17.63;;;10.88;;
35887;SDS011;21990;42.540;23.496;2023-09-07T02:22:42;19.52;;;11.43;;
35887;SDS011;21990;42.540;23.496;2023-09-07T02:25:07;18.25;;;10.43;;
35887;SDS011;21990;42.540;23.496;2023-09-07T02:27:33;17.55;;;10.48;;
35887;SDS011;21990;42.540;23.496;2023-09-07T02:29:59;24.90;;;11.00;;
35887;SDS011;21990;42.540;23.496;2023-09-07T02:32:31;19.35;;;10.85;;
35887;SDS011;21990;42.540;23.496;2023-09-07T02:34:57;20.98;;;10.82;;
35887;SDS011;21990;42.540;23.496;2023-09-07T02:37:23;14.10;;;10.95;;
35887;SDS011;21990;42.540;23.496;2023-09-07T02:39:53;26.42;;;10.82;;
35887;SDS011;21990;42.540;23.496;2023-09-07T02:42:19;18.17;;;11.45;;
35887;SDS011;21990;42.540;23.496;2023-09-07T02:44:44;15.20;;;10.27;;
35887;SDS011;21990;42.540;23.496;2023-09-07T02:47:11;20.10;;;12.18;;
35887;SDS011;21990;42.540;23.496;2023-09-07T02:49:36;15.07;;;11.77;;
35887;SDS011;21990;42.540;23.496;2023-09-07T02:52:06;18.52;;;10.32;;
35887;SDS011;21990;42.540;23.496;2023-09-07T02:54:33;16.42;;;11.77;;
35887;SDS011;21990;42.540;23.496;2023-09-07T02:57:07;18.42;;;11.45;;
35887;SDS011;21990;42.540;23.496;2023-09-07T02:59:33;15.68;;;11.63;;
35887;SDS011;21990;42.540;23.496;2023-09-07T03:01:58;27.05;;;11.80;;
35887;SDS011;21990;42.540;23.496;2023-09-07T03:04:24;18.80;;;11.75;;
35887;SDS011;21990;42.540;23.496;2023-09-07T03:06:49;17.90;;;11.70;;
35887;SDS011;21990;42.540;23.496;2023-09-07T03:09:15;22.25;;;11.55;;
35887;SDS011;21990;42.540;23.496;2023-09-07T03:11:49;19.20;;;12.63;;
35887;SDS011;21990;42.540;23.496;2023-09-07T03:14:21;21.92;;;13.90;;
35887;SDS011;21990;42.540;23.496;2023-09-07T03:16:50;20.77;;;12.18;;
35887;SDS011;21990;42.540;23.496;2023-09-07T03:19:19;24.48;;;14.25;;
35887;SDS011;21990;42.540;23.496;2023-09-07T03:21:59;22.85;;;13.50;;
35887;SDS011;21990;42.540;23.496;2023-09-07T03:25:19;25.08;;;14.68;;
35887;SDS011;21990;42.540;23.496;2023-09-07T03:42:53;27.95;;;15.48;;
35887;SDS011;21990;42.540;23.496;2023-09-07T03:45:19;26.08;;;16.83;;
35887;SDS011;21990;42.540;23.496;2023-09-07T03:47:45;22.23;;;16.45;;
35887;SDS011;21990;42.540;23.496;2023-09-07T03:50:10;25.20;;;16.33;;
35887;SDS011;21990;42.540;23.496;2023-09-07T03:52:53;30.70;;;16.35;;
35887;SDS011;21990;42.540;23.496;2023-09-07T03:55:19;24.65;;;16.33;;
35887;SDS011;21990;42.540;23.496;2023-09-07T03:57:50;25.10;;;16.10;;
35887;SDS011;21990;42.540;23.496;2023-09-07T04:00:19;26.67;;;14.52;;
35887;SDS011;21990;42.540;23.496;2023-09-07T04:02:45;23.73;;;14.38;;
35887;SDS011;21990;42.540;23.496;2023-09-07T04:05:11;24.75;;;15.20;;
35887;SDS011;21990;42.540;23.496;2023-09-07T04:07:39;27.38;;;15.60;;
35887;SDS011;21990;42.540;23.496;2023-09-07T04:10:09;37.25;;;17.45;;
35887;SDS011;21990;42.540;23.496;2023-09-07T04:12:36;29.77;;;17.15;;
35887;SDS011;21990;42.540;23.496;2023-09-07T04:15:20;25.80;;;18.58;;
35887;SDS011;21990;42.540;23.496;2023-09-07T04:17:52;29.13;;;17.02;;
35887;SDS011;21990;42.540;23.496;2023-09-07T04:20:27;25.93;;;18.17;;
35887;SDS011;21990;42.540;23.496;2023-09-07T04:22:55;29.45;;;17.58;;
35887;SDS011;21990;42.540;23.496;2023-09-07T04:25:23;28.17;;;17.75;;
35887;SDS011;21990;42.540;23.496;2023-09-07T04:30:27;22.98;;;17.63;;
35887;SDS011;21990;42.540;23.496;2023-09-07T04:33:09;29.20;;;17.08;;
35887;SDS011;21990;42.540;23.496;2023-09-07T04:36:21;26.27;;;17.55;;
35887;SDS011;21990;42.540;23.496;2023-09-07T04:38:54;26.98;;;16.80;;
35887;SDS011;21990;42.540;23.496;2023-09-07T04:44:33;29.65;;;16.65;;
35887;SDS011;21990;42.540;23.496;2023-09-07T04:47:17;32.20;;;18.05;;
35887;SDS011;21990;42.540;23.496;2023-09-07T04:50:12;28.80;;;17.65;;
35887;SDS011;21990;42.540;23.496;2023-09-07T04:53:14;54.50;;;17.67;;
35887;SDS011;21990;42.540;23.496;2023-09-07T04:56:33;27.65;;;18.13;;
35887;SDS011;21990;42.540;23.496;2023-09-07T04:59:14;34.88;;;18.25;;
35887;SDS011;21990;42.540;23.496;2023-09-07T05:15:28;32.53;;;17.67;;
35887;SDS011;21990;42.540;23.496;2023-09-07T05:17:55;27.58;;;16.83;;
35887;SDS011;21990;42.540;23.496;2023-09-07T05:20:21;26.15;;;18.10;;
35887;SDS011;21990;42.540;23.496;2023-09-07T05:22:47;28.92;;;17.98;;
35887;SDS011;21990;42.540;23.496;2023-09-07T05:25:13;31.55;;;18.33;;
35887;SDS011;21990;42.540;23.496;2023-09-07T05:27:38;36.85;;;17.20;;
35887;SDS011;21990;42.540;23.496;2023-09-07T05:43:47;19.30;;;15.00;;
35887;SDS011;21990;42.540;23.496;2023-09-07T05:46:21;20.80;;;14.93;;
35887;SDS011;21990;42.540;23.496;2023-09-07T05:49:08;24.67;;;14.95;;
35887;SDS011;21990;42.540;23.496;2023-09-07T05:52:02;19.15;;;14.55;;
35887;SDS011;21990;42.540;23.496;2023-09-07T05:54:31;21.20;;;13.10;;
35887;SDS011;21990;42.540;23.496;2023-09-07T05:56:57;19.48;;;13.25;;
35887;SDS011;21990;42.540;23.496;2023-09-07T05:59:25;23.35;;;13.68;;
35887;SDS011;21990;42.540;23.496;2023-09-07T06:01:55;23.88;;;13.57;;
35887;SDS011;21990;42.540;23.496;2023-09-07T06:04:23;18.95;;;13.18;;
35887;SDS011;21990;42.540;23.496;2023-09-07T06:06:51;22.40;;;12.40;;
35887;SDS011;21990;42.540;23.496;2023-09-07T06:09:17;23.52;;;12.50;;
35887;SDS011;21990;42.540;23.496;2023-09-07T06:11:43;20.80;;;12.15;;
35887;SDS011;21990;42.540;23.496;2023-09-07T06:14:10;17.27;;;10.73;;
35887;SDS011;21990;42.540;23.496;2023-09-07T06:16:37;15.82;;;11.35;;
35887;SDS011;21990;42.540;23.496;2023-09-07T06:19:15;18.92;;;10.52;;
35887;SDS011;21990;42.540;23.496;2023-09-07T06:21:41;15.43;;;10.18;;
35887;SDS011;21990;42.540;23.496;2023-09-07T06:24:08;15.60;;;9.70;;
35887;SDS011;21990;42.540;23.496;2023-09-07T06:26:36;19.40;;;9.07;;
35887;SDS011;21990;42.540;23.496;2023-09-07T06:29:01;19.95;;;9.43;;
35887;SDS011;21990;42.540;23.496;2023-09-07T06:31:27;14.18;;;10.10;;
35887;SDS011;21990;42.540;23.496;2023-09-07T06:33:52;19.52;;;9.80;;
35887;SDS011;21990;42.540;23.496;2023-09-07T06:36:18;13.23;;;8.77;;
35887;SDS011;21990;42.540;23.496;2023-09-07T06:38:43;14.73;;;9.40;;
35887;SDS011;21990;42.540;23.496;2023-09-07T06:41:09;11.32;;;9.02;;
35887;SDS011;21990;42.540;23.496;2023-09-07T06:43:34;17.38;;;9.82;;
35887;SDS011;21990;42.540;23.496;2023-09-07T06:46:08;15.32;;;8.68;;
35887;SDS011;21990;42.540;23.496;2023-09-07T06:48:34;15.02;;;8.27;;
35887;SDS011;21990;42.540;23.496;2023-09-07T06:51:03;13.02;;;9.65;;
35887;SDS011;21990;42.540;23.496;2023-09-07T06:53:31;21.55;;;8.43;;
35887;SDS011;21990;42.540;23.496;2023-09-07T06:56:00;22.05;;;8.88;;
35887;SDS011;21990;42.540;23.496;2023-09-07T06:58:30;15.35;;;8.30;;
35887;SDS011;21990;42.540;23.496;2023-09-07T07:00:58;16.83;;;8.40;;
35887;SDS011;21990;42.540;23.496;2023-09-07T07:03:25;15.70;;;8.07;;
35887;SDS011;21990;42.540;23.496;2023-09-07T07:05:52;12.20;;;7.60;;
35887;SDS011;21990;42.540;23.496;2023-09-07T07:08:18;17.95;;;7.82;;
35887;SDS011;21990;42.540;23.496;2023-09-07T07:10:43;11.20;;;6.97;;
35887;SDS011;21990;42.540;23.496;2023-09-07T07:13:12;13.20;;;7.28;;
35887;SDS011;21990;42.540;23.496;2023-09-07T07:15:38;14.98;;;7.70;;
35887;SDS011;21990;42.540;23.496;2023-09-07T07:18:04;13.90;;;7.38;;
35887;SDS011;21990;42.540;23.496;2023-09-07T07:20:35;13.85;;;7.35;;
35887;SDS011;21990;42.540;23.496;2023-09-07T07:23:01;10.70;;;6.80;;
35887;SDS011;21990;42.540;23.496;2023-09-07T07:25:27;11.77;;;6.60;;
35887;SDS011;21990;42.540;23.496;2023-09-07T07:27:52;25.92;;;6.57;;
35887;SDS011;21990;42.540;23.496;2023-09-07T07:30:18;11.48;;;6.25;;
35887;SDS011;21990;42.540;23.496;2023-09-07T07:32:44;15.23;;;6.00;;
35887;SDS011;21990;42.540;23.496;2023-09-07T07:35:09;19.52;;;6.00;;
35887;SDS011;21990;42.540;23.496;2023-09-07T07:37:36;13.63;;;6.20;;
35887;SDS011;21990;42.540;23.496;2023-09-07T07:40:02;20.10;;;6.00;;
35887;SDS011;21990;42.540;23.496;2023-09-07T07:42:30;16.08;;;5.40;;
35887;SDS011;21990;42.540;23.496;2023-09-07T07:44:57;14.73;;;5.28;;
35887;SDS011;21990;42.540;23.496;2023-09-07T07:47:23;11.68;;;4.47;;
35887;SDS011;21990;42.540;23.496;2023-09-07T07:49:52;9.88;;;4.90;;
35887;SDS011;21990;42.540;23.496;2023-09-07T07:52:17;10.15;;;4.65;;
35887;SDS011;21990;42.540;23.496;2023-09-07T07:54:43;8.85;;;4.15;;
35887;SDS011;21990;42.540;23.496;2023-09-07T07:57:11;14.70;;;4.10;;
35887;SDS011;21990;42.540;23.496;2023-09-07T07:59:36;8.63;;;4.38;;
35887;SDS011;21990;42.540;23.496;2023-09-07T08:02:02;9.35;;;4.18;;
35887;SDS011;21990;42.540;23.496;2023-09-07T08:04:28;24.42;;;4.20;;
35887;SDS011;21990;42.540;23.496;2023-09-07T08:06:58;11.32;;;4.03;;
35887;SDS011;21990;42.540;23.496;2023-09-07T08:09:34;10.15;;;4.32;;
35887;SDS011;21990;42.540;23.496;2023-09-07T08:12:03;11.50;;;4.47;;
35887;SDS011;21990;42.540;23.496;2023-09-07T08:14:30;16.38;;;7.53;;
35887;SDS011;21990;42.540;23.496;2023-09-07T08:16:57;13.10;;;5.18;;
35887;SDS011;21990;42.540;23.496;2023-09-07T08:19:23;10.65;;;4.63;;
35887;SDS011;21990;42.540;23.496;2023-09-07T08:21:52;16.00;;;4.45;;
35887;SDS011;21990;42.540;23.496;2023-09-07T08:24:24;18.02;;;4.55;;
35887;SDS011;21990;42.540;23.496;2023-09-07T08:27:10;10.93;;;3.78;;
35887;SDS011;21990;42.540;23.496;2023-09-07T08:29:43;12.63;;;4.25;;
35887;SDS011;21990;42.540;23.496;2023-09-07T08:32:21;8.70;;;3.60;;
35887;SDS011;21990;42.540;23.496;2023-09-07T08:34:47;8.85;;;4.38;;
35887;SDS011;21990;42.540;23.496;2023-09-07T08:37:13;9.20;;;4.25;;
35887;SDS011;21990;42.540;23.496;2023-09-07T08:39:38;12.57;;;3.95;;
35887;SDS011;21990;42.540;23.496;2023-09-07T08:42:04;9.40;;;4.40;;
35887;SDS011;21990;42.540;23.496;2023-09-07T08:44:30;10.35;;;4.43;;
35887;SDS011;21990;42.540;23.496;2023-09-07T08:47:01;10.32;;;3.67;;
35887;SDS011;21990;42.540;23.496;2023-09-07T08:49:28;11.07;;;3.70;;
35887;SDS011;21990;42.540;23.496;2023-09-07T08:51:58;9.45;;;4.07;;
35887;SDS011;21990;42.540;23.496;2023-09-07T08:54:26;9.98;;;3.63;;
35887;SDS011;21990;42.540;23.496;2023-09-07T08:56:52;11.32;;;3.15;;
35887;SDS011;21990;42.540;23.496;2023-09-07T08:59:23;8.57;;;3.45;;
35887;SDS011;21990;42.540;23.496;2023-09-07T09:01:51;12.98;;;3.95;;
35887;SDS011;21990;42.540;23.496;2023-09-07T09:04:51;8.35;;;3.75;;
35887;SDS011;21990;42.540;23.496;2023-09-07T09:07:19;9.30;;;3.70;;
35887;SDS011;21990;42.540;23.496;2023-09-07T09:10:01;8.82;;;3.40;;
35887;SDS011;21990;42.540;23.496;2023-09-07T09:12:30;11.73;;;3.70;;
35887;SDS011;21990;42.540;23.496;2023-09-07T09:14:58;10.45;;;3.05;;
35887;SDS011;21990;42.540;23.496;2023-09-07T09:17:42;10.07;;;3.75;;
35887;SDS011;21990;42.540;23.496;2023-09-07T09:20:22;10.23;;;3.63;;
35887;SDS011;21990;42.540;23.496;2023-09-07T09:22:52;5.88;;;3.22;;
35887;SDS011;21990;42.540;23.496;2023-09-07T09:25:19;17.67;;;3.78;;
35887;SDS011;21990;42.540;23.496;2023-09-07T09:27:47;9.65;;;3.20;;
35887;SDS011;21990;42.540;23.496;2023-09-07T09:30:14;8.27;;;3.75;;
35887;SDS011;21990;42.540;23.496;2023-09-07T09:32:42;14.45;;;4.22;;
35887;SDS011;21990;42.540;23.496;2023-09-07T09:35:11;13.68;;;3.50;;
35887;SDS011;21990;42.540;23.496;2023-09-07T09:37:43;5.97;;;3.40;;
35887;SDS011;21990;42.540;23.496;2023-09-07T09:40:16;6.95;;;3.50;;
35887;SDS011;21990;42.540;23.496;2023-09-07T09:42:42;8.77;;;3.80;;
35887;SDS011;21990;42.540;23.496;2023-09-07T09:45:09;13.18;;;3.58;;
35887;SDS011;21990;42.540;23.496;2023-09-07T09:47:40;10.07;;;3.25;;
35887;SDS011;21990;42.540;23.496;2023-09-07T09:50:10;9.27;;;4.45;;
35887;SDS011;21990;42.540;23.496;2023-09-07T09:52:38;8.02;;;3.75;;
35887;SDS011;21990;42.540;23.496;2023-09-07T09:55:05;15.10;;;4.03;;
35887;SDS011;21990;42.540;23.496;2023-09-07T09:57:38;11.63;;;3.65;;
35887;SDS011;21990;42.540;23.496;2023-09-07T10:00:05;7.03;;;3.63;;
35887;SDS011;21990;42.540;23.496;2023-09-07T10:02:45;7.78;;;3.35;;
35887;SDS011;21990;42.540;23.496;2023-09-07T10:05:13;15.02;;;3.22;;
35887;SDS011;21990;42.540;23.496;2023-09-07T10:07:47;7.00;;;3.70;;
35887;SDS011;21990;42.540;23.496;2023-09-07T10:12:44;5.03;;;3.38;;
35887;SDS011;21990;42.540;23.496;2023-09-07T10:18:11;5.93;;;3.58;;
35887;SDS011;21990;42.540;23.496;2023-09-07T10:26:02;9.43;;;3.72;;
35887;SDS011;21990;42.540;23.496;2023-09-07T10:28:31;6.88;;;3.40;;
35887;SDS011;21990;42.540;23.496;2023-09-07T10:31:05;12.10;;;3.30;;
35887;SDS011;21990;42.540;23.496;2023-09-07T10:33:43;8.02;;;3.30;;
35887;SDS011;21990;42.540;23.496;2023-09-07T10:36:21;6.63;;;3.42;;
35887;SDS011;21990;42.540;23.496;2023-09-07T10:45:14;24.27;;;3.90;;
35887;SDS011;21990;42.540;23.496;2023-09-07T11:16:10;8.20;;;3.83;;
35887;SDS011;21990;42.540;23.496;2023-09-07T11:18:38;9.82;;;3.67;;
35887;SDS011;21990;42.540;23.496;2023-09-07T11:21:35;7.28;;;3.67;;
35887;SDS011;21990;42.540;23.496;2023-09-07T11:30:12;8.55;;;3.20;;
35887;SDS011;21990;42.540;23.496;2023-09-07T11:32:46;7.07;;;3.50;;
35887;SDS011;21990;42.540;23.496;2023-09-07T12:33:49;4.05;;;2.90;;
35887;SDS011;21990;42.540;23.496;2023-09-07T12:38:58;15.60;;;3.03;;
35887;SDS011;21990;42.540;23.496;2023-09-07T12:41:29;11.60;;;2.88;;
35887;SDS011;21990;42.540;23.496;2023-09-07T12:44:52;12.57;;;2.93;;
35887;SDS011;21990;42.540;23.496;2023-09-07T12:47:18;18.13;;;3.45;;
35887;SDS011;21990;42.540;23.496;2023-09-07T12:49:44;10.70;;;3.38;;
35887;SDS011;21990;42.540;23.496;2023-09-07T12:55:18;12.95;;;3.47;;
35887;SDS011;21990;42.540;23.496;2023-09-07T12:57:44;11.27;;;3.92;;
35887;SDS011;21990;42.540;23.496;2023-09-07T13:00:31;7.65;;;3.35;;
35887;SDS011;21990;42.540;23.496;2023-09-07T13:29:45;6.75;;;3.50;;
35887;SDS011;21990;42.540;23.496;2023-09-07T13:32:54;7.47;;;3.80;;
35887;SDS011;21990;42.540;23.496;2023-09-07T13:35:32;12.23;;;3.38;;
35887;SDS011;21990;42.540;23.496;2023-09-07T13:41:52;10.20;;;4.38;;
35887;SDS011;21990;42.540;23.496;2023-09-07T13:44:23;14.85;;;3.58;;
35887;SDS011;21990;42.540;23.496;2023-09-07T13:53:14;19.25;;;3.92;;
35887;SDS011;21990;42.540;23.496;2023-09-07T13:56:55;11.15;;;3.75;;
35887;SDS011;21990;42.540;23.496;2023-09-07T14:04:38;16.75;;;3.97;;
35887;SDS011;21990;42.540;23.496;2023-09-07T14:21:33;8.00;;;3.70;;
35887;SDS011;21990;42.540;23.496;2023-09-07T14:39:06;14.43;;;4.10;;
35887;SDS011;21990;42.540;23.496;2023-09-07T14:52:08;15.75;;;4.20;;
35887;SDS011;21990;42.540;23.496;2023-09-07T14:54:37;19.95;;;3.90;;
35887;SDS011;21990;42.540;23.496;2023-09-07T14:57:06;8.45;;;4.00;;
35887;SDS011;21990;42.540;23.496;2023-09-07T14:59:53;15.50;;;4.03;;
35887;SDS011;21990;42.540;23.496;2023-09-07T15:02:20;12.65;;;4.38;;
35887;SDS011;21990;42.540;23.496;2023-09-07T15:04:53;6.93;;;4.20;;
35887;SDS011;21990;42.540;23.496;2023-09-07T15:07:40;9.60;;;4.15;;
35887;SDS011;21990;42.540;23.496;2023-09-07T15:10:53;11.93;;;4.00;;
35887;SDS011;21990;42.540;23.496;2023-09-07T15:14:09;10.15;;;4.57;;
35887;SDS011;21990;42.540;23.496;2023-09-07T15:17:29;11.00;;;4.53;;
35887;SDS011;21990;42.540;23.496;2023-09-07T15:23:01;14.35;;;4.03;;
35887;SDS011;21990;42.540;23.496;2023-09-07T15:25:57;11.43;;;4.20;;
35887;SDS011;21990;42.540;23.496;2023-09-07T15:32:36;12.55;;;4.20;;
35887;SDS011;21990;42.540;23.496;2023-09-07T15:35:20;11.52;;;4.75;;
35887;SDS011;21990;42.540;23.496;2023-09-07T15:38:11;13.30;;;4.55;;
35887;SDS011;21990;42.540;23.496;2023-09-07T15:47:55;12.75;;;4.70;;
35887;SDS011;21990;42.540;23.496;2023-09-07T16:31:27;19.70;;;4.87;;
35887;SDS011;21990;42.540;23.496;2023-09-07T16:34:01;13.52;;;5.40;;
35887;SDS011;21990;42.540;23.496;2023-09-07T16:37:15;14.90;;;4.88;;
35887;SDS011;21990;42.540;23.496;2023-09-07T16:40:14;8.82;;;4.65;;
35887;SDS011;21990;42.540;23.496;2023-09-07T16:43:56;16.38;;;5.38;;
35887;SDS011;21990;42.540;23.496;2023-09-07T16:47:04;20.20;;;5.38;;
35887;SDS011;21990;42.540;23.496;2023-09-07T16:49:33;15.75;;;5.10;;
35887;SDS011;21990;42.540;23.496;2023-09-07T16:52:11;14.63;;;5.15;;
35887;SDS011;21990;42.540;23.496;2023-09-07T16:54:53;15.15;;;5.22;;
35887;SDS011;21990;42.540;23.496;2023-09-07T16:57:31;10.77;;;5.25;;
35887;SDS011;21990;42.540;23.496;2023-09-07T17:03:13;20.55;;;5.18;;
35887;SDS011;21990;42.540;23.496;2023-09-07T17:05:45;15.80;;;5.65;;
35887;SDS011;21990;42.540;23.496;2023-09-07T17:08:22;9.45;;;4.60;;
35887;SDS011;21990;42.540;23.496;2023-09-07T17:11:00;16.08;;;5.15;;
35887;SDS011;21990;42.540;23.496;2023-09-07T17:13:34;16.05;;;4.72;;
35887;SDS011;21990;42.540;23.496;2023-09-07T17:16:01;13.13;;;5.13;;
35887;SDS011;21990;42.540;23.496;2023-09-07T17:18:27;22.77;;;5.72;;
35887;SDS011;21990;42.540;23.496;2023-09-07T17:20:54;16.80;;;5.25;;
35887;SDS011;21990;42.540;23.496;2023-09-07T17:23:21;16.95;;;5.22;;
35887;SDS011;21990;42.540;23.496;2023-09-07T17:25:53;12.88;;;5.07;;
35887;SDS011;21990;42.540;23.496;2023-09-07T17:28:23;20.42;;;5.13;;
35887;SDS011;21990;42.540;23.496;2023-09-07T17:30:53;10.43;;;5.30;;
35887;SDS011;21990;42.540;23.496;2023-09-07T17:33:19;12.20;;;5.57;;
35887;SDS011;21990;42.540;23.496;2023-09-07T17:35:47;9.05;;;5.10;;
35887;SDS011;21990;42.540;23.496;2023-09-07T17:38:13;16.13;;;5.25;;
35887;SDS011;21990;42.540;23.496;2023-09-07T17:40:40;29.92;;;5.55;;
35887;SDS011;21990;42.540;23.496;2023-09-07T17:43:35;13.80;;;5.47;;
35887;SDS011;21990;42.540;23.496;2023-09-07T17:46:01;9.98;;;5.05;;
35887;SDS011;21990;42.540;23.496;2023-09-07T17:48:27;10.82;;;5.40;;
35887;SDS011;21990;42.540;23.496;2023-09-07T17:50:57;21.48;;;5.63;;
35887;SDS011;21990;42.540;23.496;2023-09-07T17:53:24;20.33;;;5.78;;
35887;SDS011;21990;42.540;23.496;2023-09-07T17:55:54;18.58;;;5.65;;
35887;SDS011;21990;42.540;23.496;2023-09-07T17:58:20;14.38;;;5.68;;
35887;SDS011;21990;42.540;23.496;2023-09-07T18:00:47;27.58;;;5.53;;
35887;SDS011;21990;42.540;23.496;2023-09-07T18:03:12;12.48;;;5.35;;
35887;SDS011;21990;42.540;23.496;2023-09-07T18:05:39;9.75;;;4.82;;
35887;SDS011;21990;42.540;23.496;2023-09-07T18:08:06;10.70;;;5.25;;
35887;SDS011;21990;42.540;23.496;2023-09-07T18:10:31;16.33;;;4.85;;
35887;SDS011;21990;42.540;23.496;2023-09-07T18:12:57;9.27;;;4.93;;
35887;SDS011;21990;42.540;23.496;2023-09-07T18:15:23;12.30;;;5.03;;
35887;SDS011;21990;42.540;23.496;2023-09-07T18:17:48;11.23;;;5.07;;
35887;SDS011;21990;42.540;23.496;2023-09-07T18:20:14;14.50;;;5.55;;
35887;SDS011;21990;42.540;23.496;2023-09-07T18:22:42;19.70;;;5.90;;
35887;SDS011;21990;42.540;23.496;2023-09-07T18:25:08;19.27;;;5.20;;
35887;SDS011;21990;42.540;23.496;2023-09-07T18:27:34;18.20;;;5.28;;
35887;SDS011;21990;42.540;23.496;2023-09-07T18:29:59;12.00;;;5.97;;
35887;SDS011;21990;42.540;23.496;2023-09-07T18:32:26;17.90;;;5.55;;
35887;SDS011;21990;42.540;23.496;2023-09-07T18:34:52;13.07;;;5.68;;
35887;SDS011;21990;42.540;23.496;2023-09-07T18:37:19;13.95;;;5.68;;
35887;SDS011;21990;42.540;23.496;2023-09-07T18:39:45;17.55;;;5.55;;
35887;SDS011;21990;42.540;23.496;2023-09-07T18:42:10;17.95;;;5.40;;
35887;SDS011;21990;42.540;23.496;2023-09-07T18:44:36;10.43;;;5.88;;
35887;SDS011;21990;42.540;23.496;2023-09-07T18:47:02;14.43;;;5.40;;
35887;SDS011;21990;42.540;23.496;2023-09-07T18:49:28;18.52;;;5.53;;
35887;SDS011;21990;42.540;23.496;2023-09-07T18:51:54;17.90;;;5.13;;
35887;SDS011;21990;42.540;23.496;2023-09-07T18:54:19;18.73;;;6.13;;
35887;SDS011;21990;42.540;23.496;2023-09-07T18:56:45;16.70;;;5.57;;
35887;SDS011;21990;42.540;23.496;2023-09-07T18:59:11;20.85;;;5.78;;
35887;SDS011;21990;42.540;23.496;2023-09-07T19:01:38;9.68;;;5.38;;
35887;SDS011;21990;42.540;23.496;2023-09-07T19:04:10;15.15;;;5.20;;
35887;SDS011;21990;42.540;23.496;2023-09-07T19:06:37;11.30;;;5.50;;
35887;SDS011;21990;42.540;23.496;2023-09-07T19:09:04;18.10;;;5.45;;
35887;SDS011;21990;42.540;23.496;2023-09-07T19:11:31;11.02;;;5.60;;
35887;SDS011;21990;42.540;23.496;2023-09-07T19:13:57;16.63;;;6.28;;
35887;SDS011;21990;42.540;23.496;2023-09-07T19:16:23;16.80;;;5.95;;
35887;SDS011;21990;42.540;23.496;2023-09-07T19:18:49;18.75;;;5.95;;
35887;SDS011;21990;42.540;23.496;2023-09-07T19:21:15;24.38;;;7.05;;
35887;SDS011;21990;42.540;23.496;2023-09-07T19:23:42;13.60;;;5.63;;
35887;SDS011;21990;42.540;23.496;2023-09-07T19:29:10;16.77;;;5.68;;
35887;SDS011;21990;42.540;23.496;2023-09-07T19:31:36;12.43;;;5.50;;
35887;SDS011;21990;42.540;23.496;2023-09-07T19:34:03;20.60;;;5.63;;
35887;SDS011;21990;42.540;23.496;2023-09-07T19:36:29;10.68;;;5.53;;
35887;SDS011;21990;42.540;23.496;2023-09-07T19:38:56;20.17;;;5.80;;
35887;SDS011;21990;42.540;23.496;2023-09-07T19:41:24;19.65;;;6.47;;
35887;SDS011;21990;42.540;23.496;2023-09-07T19:43:52;10.02;;;5.28;;
35887;SDS011;21990;42.540;23.496;2023-09-07T19:46:17;15.63;;;6.28;;
35887;SDS011;21990;42.540;23.496;2023-09-07T19:48:43;11.18;;;5.60;;
35887;SDS011;21990;42.540;23.496;2023-09-07T19:51:20;10.25;;;5.47;;
35887;SDS011;21990;42.540;23.496;2023-09-07T19:54:01;13.45;;;5.70;;
35887;SDS011;21990;42.540;23.496;2023-09-07T19:56:51;10.85;;;5.22;;
35887;SDS011;21990;42.540;23.496;2023-09-07T19:59:19;21.10;;;6.20;;